»·PEaware :: N80B KAKO-KBFF

N80B :: KAKO-KBFF

FLIGHT INFORMATION

Flight Status: Arrived
Operator: Privately registered:
United States
More flights under this callsign
Pilot: John K. J. (32792)
Aircraft: MCDONNELL-DOUGLAS SKYTRAIN C-47
(DC3)
More flights by this aircraft type
Origin: KAKO Colorado Plains Regl
United States
Destination: KBFF Heilig
United States
More flights between these airports :: More routes between these airports
Route: AKO V169 SNY V169 BFF
File this flight plan on PilotEdge
Remarks:
Altitude:
(Current/Filed)
9,000ft
Speed:
(Current/Filed)
150kts
Departed: 23-Nov-22 08:47 PM
Arrived: 23-Nov-22 09:33 PM
Distance/Time
Traveled:
103nm/0:45
Distance/Time
To Go:
Arrived

Flight Plot

Page will automatically refresh every two minutes.

Flight plan parsing failed; only flown route is shown


Map Options




Map Legend


Flown Route
Filed Route
Departure Airport
Arrival Airport
Navaid (VOR, NDB)
Fix

Horizontal Profiles

Position Reports

Time Latitude Longitude Heading Altitude Ground
Speed
23-Nov-22 20:38 40.180635 -103.232446 205 4723ft 0kts
23-Nov-22 20:39 40.180634 -103.232447 205 4723ft 0kts
23-Nov-22 20:40 40.180633 -103.232448 205 4723ft 0kts
23-Nov-22 20:41 40.180631 -103.232448 205 4723ft 0kts
23-Nov-22 20:42 40.180629 -103.232450 205 4723ft 0kts
23-Nov-22 20:43 40.180628 -103.232450 205 4723ft 0kts
23-Nov-22 20:44 40.180274 -103.232595 166 4723ft 6kts
23-Nov-22 20:45 40.180040 -103.232265 119 4723ft 0kts
23-Nov-22 20:46 40.170056 -103.211477 129 5032ft 100kts
23-Nov-22 20:47 40.159564 -103.171391 63 5774ft 138kts
23-Nov-22 20:48 40.195632 -103.157305 351 6550ft 152kts
23-Nov-22 20:49 40.234460 -103.162849 4 7230ft 133kts
23-Nov-22 20:50 40.269651 -103.156389 8 7904ft 123kts
23-Nov-22 20:51 40.302340 -103.149626 8 8581ft 114kts
23-Nov-22 20:52 40.333723 -103.143123 8 9022ft 126kts
23-Nov-22 20:53 40.373549 -103.134930 8 9005ft 157kts
23-Nov-22 20:54 40.417303 -103.125885 8 8999ft 160kts
23-Nov-22 20:55 40.461163 -103.116775 8 9000ft 160kts
23-Nov-22 20:56 40.505298 -103.107591 8 9000ft 161kts
23-Nov-22 20:57 40.549717 -103.098334 8 8999ft 162kts
23-Nov-22 20:58 40.594612 -103.088968 8 9000ft 163kts
23-Nov-22 20:59 40.635276 -103.080472 8 9000ft 164kts
23-Nov-22 21:00 40.674218 -103.072325 8 8999ft 164kts
23-Nov-22 21:01 40.719423 -103.062854 8 9000ft 165kts
23-Nov-22 21:02 40.764671 -103.053360 8 9000ft 165kts
23-Nov-22 21:03 40.809954 -103.043845 8 8999ft 165kts
23-Nov-22 21:04 40.855409 -103.034278 8 9000ft 165kts
23-Nov-22 21:05 40.900733 -103.024725 8 8999ft 165kts
23-Nov-22 21:07 40.946068 -103.015149 8 9000ft 165kts
23-Nov-22 21:08 40.991425 -103.005553 8 9000ft 165kts
23-Nov-22 21:09 41.037092 -102.995864 8 8999ft 165kts
23-Nov-22 21:10 41.072406 -102.988335 9 8999ft 165kts
23-Nov-22 21:11 41.116713 -102.995632 336 9000ft 164kts
23-Nov-22 21:12 41.158182 -103.021204 334 9000ft 165kts
23-Nov-22 21:13 41.199843 -103.047103 334 9000ft 165kts
23-Nov-22 21:14 41.241433 -103.072934 334 9000ft 165kts
23-Nov-22 21:15 41.283090 -103.098811 334 8999ft 165kts
23-Nov-22 21:16 41.324896 -103.124814 334 9000ft 165kts
23-Nov-22 21:17 41.366590 -103.150794 334 9000ft 165kts
23-Nov-22 21:18 41.408280 -103.176792 334 8999ft 165kts
23-Nov-22 21:19 41.449816 -103.202751 334 9000ft 165kts
23-Nov-22 21:20 41.491933 -103.229092 334 8999ft 166kts
23-Nov-22 21:21 41.533497 -103.255133 334 8999ft 166kts
23-Nov-22 21:22 41.575341 -103.281384 334 9000ft 166kts
23-Nov-22 21:23 41.617881 -103.308119 334 8701ft 182kts
23-Nov-22 21:24 41.666198 -103.338291 334 7897ft 194kts
23-Nov-22 21:25 41.710315 -103.376561 318 6160ft 185kts
23-Nov-22 21:26 41.739508 -103.417211 311 5885ft 117kts
23-Nov-22 21:27 41.760098 -103.445999 315 5895ft 101kts
23-Nov-22 21:28 41.780287 -103.471704 316 5898ft 98kts
23-Nov-22 21:29 41.801055 -103.498496 315 5545ft 121kts
23-Nov-22 21:30 41.825261 -103.530322 315 4720ft 107kts
23-Nov-22 21:31 41.845367 -103.556479 316 4661ft 102kts
23-Nov-22 21:32 41.866243 -103.583880 315 4061ft 109kts
23-Nov-22 21:32 41.878393 -103.599910 314 3977ft 22kts
23-Nov-22 21:33 41.881615 -103.604103 313 3977ft 21kts
23-Nov-22 21:35 41.876887 -103.600092 136 3977ft 61kts
23-Nov-22 21:36 41.871400 -103.594233 220 3976ft 8kts
23-Nov-22 21:37 41.871161 -103.594324 162 3976ft 0kts
23-Nov-22 21:37 41.871161 -103.594324 162 3976ft 0kts
23-Nov-22 21:38 41.871161 -103.594324 162 3976ft 0kts
23-Nov-22 21:39 41.871161 -103.594324 162 3976ft 0kts
23-Nov-22 21:41 41.871161 -103.594324 162 3976ft 0kts
23-Nov-22 21:42 41.871161 -103.594324 162 3976ft 0kts
23-Nov-22 21:42 41.871161 -103.594324 162 3976ft 0kts
23-Nov-22 21:43 41.871161 -103.594324 162 3976ft 0kts
23-Nov-22 21:44 41.871161 -103.594324 162 3976ft 0kts
23-Nov-22 21:45 41.871161 -103.594324 162 3976ft 0kts

Navigation Log

Ident Type
Flight plan parsing failed, navigation log unavailable